Time;durP1;ratioP1;P1;durP2;ratioP2;P2;SDS_P1;SDS_P2;PMS_P1;PMS_P2;Temp;Humidity;BMP_temperature;BMP_pressure;BME280_temperature;BME280_humidity;BME280_pressure;Samples;Min_cycle;Max_cycle;Signal;HPM_P1;HPM_P2
2022/09/22 05:04:08;;;;;;;;;23.50;23.50;;;;;7.58;92.11;102046.88;5109221;27;49741;-79
2022/09/22 05:06:45;;;;;;;;;25.75;21.00;;;;;7.75;91.73;102027.78;5108911;27;49745;-78
2022/09/22 05:09:15;;;;;;;;;25.50;22.50;;;;;7.92;90.36;102041.72;5111492;27;50045;-78
2022/09/22 05:11:41;;;;;;;;;23.00;22.75;;;;;7.04;90.20;101883.78;5107475;27;51586;-79
2022/09/22 05:14:15;;;;;;;;;20.50;20.50;;;;;6.69;89.56;101783.66;5108915;27;49859;-80
2022/09/22 05:19:45;;;;;;;;;;;;;;;;;;;;;
2022/09/22 05:22:13;;;;;;;;;23.50;21.75;;;;;8.01;87.87;101946.34;5107868;27;80098;-85
2022/09/22 05:24:41;;;;;;;;;27.00;22.75;;;;;7.20;87.07;101796.72;5109446;27;49704;-77
2022/09/22 05:27:07;;;;;;;;;21.50;21.50;;;;;8.67;87.06;102032.44;5108538;27;49809;-79
2022/09/22 05:29:32;;;;;;;;;22.00;21.00;;;;;8.60;86.93;102011.22;5108948;27;49761;-77
2022/09/22 05:31:57;;;;;;;;;22.00;22.00;;;;;7.81;85.73;101881.69;5108118;27;49865;-78
2022/09/22 05:34:23;;;;;;;;;21.00;20.50;;;;;7.67;85.67;101847.03;5106677;27;50068;-77
2022/09/22 05:36:48;;;;;;;;;23.50;23.25;;;;;7.94;84.90;101891.06;5107995;27;49837;-77
2022/09/22 05:39:13;;;;;;;;;19.75;17.00;;;;;8.56;84.85;101998.78;5108593;27;49788;-78
2022/09/22 05:41:39;;;;;;;;;23.25;20.50;;;;;8.88;83.88;102052.72;5107904;27;49827;-71
2022/09/22 05:44:04;;;;;;;;;20.75;20.75;;;;;8.99;84.38;102026.16;5108162;27;49826;-72
2022/09/22 05:46:29;;;;;;;;;24.00;21.75;;;;;8.65;82.99;101973.88;5108003;27;49923;-70
2022/09/22 05:48:54;;;;;;;;;26.25;23.75;;;;;9.11;83.34;102043.31;5107945;27;49934;-71
2022/09/22 05:51:20;;;;;;;;;21.50;19.25;;;;;8.70;82.92;101988.09;5107088;27;58448;-70
2022/09/22 05:53:45;;;;;;;;;22.00;20.75;;;;;9.24;82.92;102059.59;5107599;27;49808;-69
2022/09/22 05:56:10;;;;;;;;;17.75;16.75;;;;;9.13;81.73;102031.19;5105726;27;64906;-69
2022/09/22 05:58:36;;;;;;;;;25.25;21.25;;;;;9.28;81.68;102056.31;5108192;27;49800;-70
2022/09/22 06:01:03;;;;;;;;;23.25;22.25;;;;;9.31;81.42;102059.06;5107462;27;50275;-72
2022/09/22 06:03:28;;;;;;;;;27.00;21.75;;;;;8.94;81.82;102022.38;5107396;27;49640;-73
2022/09/22 06:05:54;;;;;;;;;23.00;22.00;;;;;8.68;81.95;101940.88;5107426;27;50436;-69
2022/09/22 06:08:19;;;;;;;;;20.25;19.75;;;;;9.40;81.85;102062.13;5107676;27;50100;-70
2022/09/22 06:10:47;;;;;;;;;19.75;19.75;;;;;9.42;81.05;102053.50;5107284;27;50574;-69
2022/09/22 06:13:13;;;;;;;;;26.75;26.50;;;;;9.25;80.30;102019.47;5107230;27;49560;-77
2022/09/22 06:15:38;;;;;;;;;21.75;21.75;;;;;9.20;80.47;102015.75;5092092;27;49825;-76
2022/09/22 06:18:07;;;;;;;;;23.50;21.50;;;;;9.44;80.11;102041.34;5094035;27;49692;-76
2022/09/22 06:20:34;;;;;;;;;24.00;22.75;;;;;9.54;80.35;102050.53;5091808;27;51968;-71
2022/09/22 06:22:59;;;;;;;;;25.00;23.25;;;;;8.74;80.29;101915.00;5093426;27;49731;-75
2022/09/22 06:25:27;;;;;;;;;25.00;24.25;;;;;8.62;79.46;101876.88;5093615;27;49803;-75
2022/09/22 06:28:04;;;;;;;;;23.50;21.75;;;;;9.65;80.33;102040.53;5093932;27;50016;-74
2022/09/22 06:30:31;;;;;;;;;24.75;22.25;;;;;9.60;80.41;102015.84;5093408;27;49848;-78
2022/09/22 06:32:56;;;;;;;;;22.25;20.25;;;;;9.33;79.51;101987.56;5093740;27;49794;-70
2022/09/22 06:35:22;;;;;;;;;24.75;22.25;;;;;9.64;79.54;102033.50;5093796;27;49568;-72
2022/09/22 06:37:55;;;;;;;;;24.50;21.25;;;;;9.68;79.71;102025.84;5093350;27;49704;-71
2022/09/22 06:40:21;;;;;;;;;19.75;19.25;;;;;9.59;79.53;102007.09;5086025;27;50243;-80
2022/09/22 06:42:48;;;;;;;;;24.50;20.50;;;;;9.34;79.36;101936.94;5092958;27;49607;-82
2022/09/22 06:45:14;;;;;;;;;24.25;23.75;;;;;9.65;79.43;101982.84;5093224;27;49810;-72
2022/09/22 06:47:40;;;;;;;;;24.00;24.00;;;;;9.07;79.06;101885.91;5092086;27;50001;-70
2022/09/22 06:50:06;;;;;;;;;26.25;22.75;;;;;9.50;78.83;101948.13;5092502;27;49757;-73
2022/09/22 06:52:31;;;;;;;;;18.25;17.50;;;;;10.11;78.22;102027.72;5092177;27;49793;-75
2022/09/22 06:54:59;;;;;;;;;24.00;22.75;;;;;10.24;77.36;102053.69;5093354;27;49786;-71
2022/09/22 06:57:26;;;;;;;;;18.75;17.50;;;;;10.38;76.63;102035.88;5093366;27;49770;-78
2022/09/22 06:59:52;;;;;;;;;24.50;17.50;;;;;10.39;76.43;102032.44;5092508;27;49975;-78
2022/09/22 07:02:18;;;;;;;;;25.25;20.25;;;;;10.09;75.76;101978.63;5092423;27;49922;-78
2022/09/22 07:04:45;;;;;;;;;19.50;18.50;;;;;10.65;75.31;102036.13;5093088;27;49659;-71
2022/09/22 07:07:10;;;;;;;;;20.50;20.25;;;;;10.01;73.66;101913.59;5092832;27;49970;-72
2022/09/22 07:09:36;;;;;;;;;17.00;15.75;;;;;10.78;73.81;102033.16;5091363;27;51420;-75
2022/09/22 07:12:01;;;;;;;;;18.00;13.75;;;;;10.86;73.71;102049.22;5093068;27;49795;-73
2022/09/22 07:14:28;;;;;;;;;18.75;18.50;;;;;10.79;73.00;102013.03;5099939;27;49861;-69
2022/09/22 07:16:54;;;;;;;;;18.00;14.75;;;;;10.83;73.03;102031.63;5104835;27;49865;-72
2022/09/22 07:19:19;;;;;;;;;18.75;17.75;;;;;10.65;72.55;101970.47;5106711;27;49464;-71
2022/09/22 07:21:45;;;;;;;;;24.25;19.25;;;;;11.06;72.01;102031.63;5093075;27;49837;-74
2022/09/22 07:24:10;;;;;;;;;18.00;15.75;;;;;10.96;71.25;102004.09;5095327;27;49688;-77
2022/09/22 07:26:38;;;;;;;;;20.75;19.75;;;;;10.93;72.04;101976.81;5091590;27;49764;-76
2022/09/22 07:29:07;;;;;;;;;23.00;20.50;;;;;11.31;70.92;102038.72;5092524;27;50377;-79
2022/09/22 07:31:33;;;;;;;;;17.50;16.75;;;;;10.94;69.73;101969.00;5092465;27;49984;-78
2022/09/22 07:33:59;;;;;;;;;26.25;15.50;;;;;10.36;69.63;101880.06;5092449;27;49710;-83
2022/09/22 07:36:27;;;;;;;;;21.25;19.25;;;;;11.05;69.41;101972.03;5091392;27;49755;-73
2022/09/22 07:38:56;;;;;;;;;22.75;21.00;;;;;11.48;68.96;102042.88;5091934;27;51316;-69
2022/09/22 07:41:27;;;;;;;;;17.50;15.50;;;;;11.04;68.56;101963.25;5091140;27;49953;-69
2022/09/22 07:43:55;;;;;;;;;22.25;22.25;;;;;11.27;68.64;101979.88;5092182;27;50020;-71
2022/09/22 07:46:20;;;;;;;;;22.25;15.75;;;;;11.68;68.30;102036.66;5092298;27;49987;-69
2022/09/22 07:48:46;;;;;;;;;22.50;21.00;;;;;11.72;67.82;102043.78;5091416;27;50361;-69
2022/09/22 07:51:19;;;;;;;;;23.00;20.25;;;;;11.58;68.35;102010.84;5091690;27;49803;-69
2022/09/22 07:53:56;;;;;;;;;20.25;17.25;;;;;11.77;66.67;102022.91;5091960;27;49821;-72
2022/09/22 07:56:27;;;;;;;;;23.00;21.25;;;;;11.82;66.65;102017.84;5092325;27;49766;-69
2022/09/22 07:58:53;;;;;;;;;22.50;17.75;;;;;11.52;65.47;101949.22;5091702;27;51519;-69
2022/09/22 08:01:22;;;;;;;;;16.50;15.00;;;;;12.02;66.10;102014.19;5091829;27;49538;-69
2022/09/22 08:03:49;;;;;;;;;17.50;14.75;;;;;12.09;65.90;102025.81;5091704;27;49923;-70
2022/09/22 08:06:17;;;;;;;;;16.75;16.00;;;;;12.32;65.63;102036.28;5091714;27;50061;-69
2022/09/22 08:08:46;;;;;;;;;17.50;16.50;;;;;12.41;65.23;102033.06;5091490;27;49858;-73
2022/09/22 08:11:16;;;;;;;;;19.25;16.50;;;;;12.27;64.28;101997.50;5090326;27;49801;-75
2022/09/22 08:13:52;;;;;;;;;20.75;19.50;;;;;12.25;63.94;101986.00;5085077;27;49778;-75
2022/09/22 08:16:21;;;;;;;;;27.00;20.50;;;;;12.47;64.39;102014.84;5086430;27;49743;-74
2022/09/22 08:18:58;;;;;;;;;17.75;16.00;;;;;12.56;65.03;102006.34;5091514;27;49979;-77
2022/09/22 08:21:24;;;;;;;;;18.75;15.50;;;;;12.71;63.29;102020.00;5091520;27;49834;-76
2022/09/22 08:23:52;;;;;;;;;19.75;16.00;;;;;12.33;62.53;101950.28;5091536;27;49815;-76
2022/09/22 08:26:19;;;;;;;;;13.25;13.25;;;;;12.79;62.35;102022.88;5091802;27;50235;-75
2022/09/22 08:28:45;;;;;;;;;17.00;16.00;;;;;12.84;61.91;102023.94;5091251;27;49972;-74
2022/09/22 08:31:12;;;;;;;;;20.25;18.50;;;;;12.74;61.98;102001.69;5091539;27;49739;-75
2022/09/22 08:33:39;;;;;;;;;16.75;15.00;;;;;12.94;61.92;102010.22;5091524;27;49941;-74
2022/09/22 08:36:05;;;;;;;;;21.50;16.50;;;;;13.09;61.81;102015.94;5089914;27;49966;-72
2022/09/22 08:38:33;;;;;;;;;23.25;20.00;;;;;13.03;60.88;101994.69;5090980;27;50361;-76
2022/09/22 08:41:17;;;;;;;;;17.25;17.00;;;;;13.25;61.19;102016.44;5091226;27;49685;-75
2022/09/22 08:43:54;;;;;;;;;18.00;16.75;;;;;13.24;60.39;102007.63;5091369;27;50477;-70
2022/09/22 08:46:31;;;;;;;;;23.25;16.25;;;;;13.35;59.93;102019.38;5091559;27;49985;-75
2022/09/22 08:52:53;;;;;;;;;19.25;16.25;;;;;13.48;59.65;102015.34;5079034;27;50128;-75
2022/09/22 08:55:23;;;;;;;;;21.50;15.50;;;;;13.45;59.88;102010.91;5088617;27;49873;-74
2022/09/22 08:58:10;;;;;;;;;16.75;16.75;;;;;13.54;59.76;102009.38;5091358;27;49762;-76
2022/09/22 09:00:42;;;;;;;;;18.50;16.00;;;;;13.60;59.52;101993.69;5090664;27;49672;-76
2022/09/22 09:03:30;;;;;;;;;15.00;13.75;;;;;13.80;58.57;102020.63;5084317;27;49693;-75
2022/09/22 09:06:09;;;;;;;;;14.00;12.00;;;;;13.86;57.92;102015.53;5090728;27;50387;-73
2022/09/22 09:08:50;;;;;;;;;14.00;11.25;;;;;13.90;57.66;102022.72;5089943;27;49909;-76
2022/09/22 09:11:31;;;;;;;;;12.25;12.00;;;;;13.72;58.21;101980.88;5084320;27;49928;-76
2022/09/22 09:14:02;;;;;;;;;13.75;11.00;;;;;14.07;58.25;102013.47;5086129;27;49739;-75
2022/09/22 09:16:52;;;;;;;;;11.75;11.75;;;;;14.13;57.73;102016.28;5091084;27;49685;-76
2022/09/22 09:19:42;;;;;;;;;12.00;12.00;;;;;14.10;57.90;101997.72;5090911;27;49840;-77
2022/09/22 09:22:23;;;;;;;;;17.25;16.25;;;;;14.26;57.36;102009.56;5090441;27;49781;-76
2022/09/22 09:24:56;;;;;;;;;17.25;16.50;;;;;13.43;56.30;101882.47;5090771;27;50216;-77
2022/09/22 09:27:26;;;;;;;;;17.00;12.25;;;;;14.45;56.66;102025.06;5091040;27;50055;-77
2022/09/22 09:30:05;;;;;;;;;14.75;14.00;;;;;14.53;55.82;102006.75;5091100;27;49714;-76
2022/09/22 09:32:51;;;;;;;;;14.00;13.00;;;;;14.58;55.66;102003.38;5090490;27;49862;-70
2022/09/22 09:35:23;;;;;;;;;13.50;12.25;;;;;14.45;55.19;101966.03;5085070;27;49912;-70
2022/09/22 09:37:52;;;;;;;;;11.00;9.25;;;;;14.66;54.76;101981.50;5090644;27;49957;-70
2022/09/22 09:40:20;;;;;;;;;11.25;11.00;;;;;14.81;55.05;101988.06;5090105;27;49943;-70
2022/09/22 09:43:02;;;;;;;;;9.75;5.00;;;;;14.82;54.88;101991.59;5090194;27;49870;-69
2022/09/22 09:45:56;;;;;;;;;8.75;8.75;;;;;14.97;54.91;101999.00;5090544;27;49613;-71
2022/09/22 09:48:30;;;;;;;;;9.75;9.75;;;;;15.03;55.44;101992.06;5060467;27;49836;-69
2022/09/22 09:51:01;;;;;;;;;9.25;8.50;;;;;15.00;55.06;101975.25;5093694;27;49853;-70
2022/09/22 09:53:33;;;;;;;;;9.75;9.00;;;;;14.59;52.98;101912.69;5093730;27;50655;-72
2022/09/22 09:55:59;;;;;;;;;9.75;9.75;;;;;15.16;53.71;101978.25;5094118;27;49787;-74
2022/09/22 10:01:13;;;;;;;;;8.50;7.00;;;;;15.05;53.27;101952.41;5094250;27;49673;-75
2022/09/22 10:03:47;;;;;;;;;11.75;10.75;;;;;14.22;52.51;101770.03;5093465;27;50481;-74
2022/09/22 10:06:14;;;;;;;;;9.50;7.50;;;;;14.31;52.16;101780.78;5093977;27;49816;-74
2022/09/22 10:08:45;;;;;;;;;6.75;5.25;;;;;14.30;50.42;101777.25;5093659;27;49851;-75
2022/09/22 10:11:13;;;;;;;;;6.00;5.00;;;;;15.11;49.23;101882.03;5093900;27;49727;-74
2022/09/22 10:13:41;;;;;;;;;7.25;5.75;;;;;15.14;50.04;101887.38;5093517;27;49747;-75
2022/09/22 10:16:19;;;;;;;;;5.00;5.00;;;;;15.78;49.01;101961.88;5093644;27;49671;-75
2022/09/22 10:18:45;;;;;;;;;4.75;4.00;;;;;15.31;48.27;101890.38;5093813;27;49760;-74
2022/09/22 10:21:22;;;;;;;;;10.00;6.25;;;;;15.43;48.41;101871.19;5092332;27;49960;-74
2022/09/22 10:23:52;;;;;;;;;8.00;6.75;;;;;15.17;48.46;101849.56;5086990;27;51120;-75
2022/09/22 10:26:29;;;;;;;;;6.00;4.00;;;;;14.96;47.94;101783.91;5093661;27;49850;-75
2022/09/22 10:29:19;;;;;;;;;5.00;4.00;;;;;16.14;48.23;101942.22;5093524;27;49808;-75
2022/09/22 10:32:06;;;;;;;;;3.50;3.50;;;;;16.25;45.81;101940.63;5093629;27;49963;-75
2022/09/22 10:34:32;;;;;;;;;3.75;3.75;;;;;16.32;46.53;101939.88;5094290;27;50487;-75
2022/09/22 10:36:59;;;;;;;;;3.00;3.00;;;;;16.31;46.78;101907.19;5095938;27;50096;-76
2022/09/22 10:39:34;;;;;;;;;3.00;3.00;;;;;16.57;46.89;101933.16;5096315;27;49873;-74
2022/09/22 10:42:06;;;;;;;;;7.75;4.50;;;;;16.65;46.89;101947.44;5103809;27;49620;-74
2022/09/22 10:44:32;;;;;;;;;7.00;4.25;;;;;15.63;46.20;101728.66;5116375;27;50556;-73
2022/09/22 10:47:07;;;;;;;;;2.00;2.00;;;;;16.78;44.34;101922.00;5106548;27;49605;-76
2022/09/22 10:49:51;;;;;;;;;6.00;6.00;;;;;16.85;44.73;101919.47;5107987;27;49271;-74
2022/09/22 10:52:37;;;;;;;;;3.50;3.50;;;;;16.45;43.75;101858.78;5110687;27;49261;-74
2022/09/22 10:55:26;;;;;;;;;2.25;1.25;;;;;16.79;41.81;101886.66;5096420;27;49957;-75
2022/09/22 10:58:14;;;;;;;;;1.00;1.00;;;;;17.21;42.36;101907.53;5104269;27;49937;-73
2022/09/22 11:00:41;;;;;;;;;2.00;2.00;;;;;17.31;42.06;101914.72;5103726;27;49806;-74
2022/09/22 11:03:15;;;;;;;;;2.50;2.50;;;;;17.38;42.25;101903.31;5105677;27;49205;-74
2022/09/22 11:12:24;;;;;;;;;1.75;1.75;;;;;17.42;40.79;101894.50;5100663;27;49946;-76
2022/09/22 11:14:58;;;;;;;;;1.00;1.00;;;;;16.76;41.10;101770.84;5105806;27;49908;-76
2022/09/22 11:17:39;;;;;;;;;3.25;2.25;;;;;17.64;40.75;101900.91;5092369;27;49878;-76
2022/09/22 11:20:38;;;;;;;;;3.25;3.25;;;;;16.99;40.69;101775.53;5102596;27;49648;-76
2022/09/22 11:23:17;;;;;;;;;2.75;2.75;;;;;17.59;40.60;101885.84;5094260;27;49844;-76
2022/09/22 11:26:07;;;;;;;;;2.50;2.50;;;;;17.42;39.52;101898.94;5075146;27;49871;-77
2022/09/22 11:29:10;;;;;;;;;4.00;4.00;;;;;17.51;40.44;101885.75;5086638;27;49767;-78
2022/09/22 11:32:00;;;;;;;;;4.00;3.00;;;;;17.06;40.55;101807.41;5092867;27;49587;-77
2022/09/22 11:34:39;;;;;;;;;5.50;5.00;;;;;17.51;41.06;101883.09;5087020;27;49929;-77
2022/09/22 11:37:31;;;;;;;;;3.00;3.00;;;;;17.54;41.55;101880.47;5090794;27;49881;-77
2022/09/22 11:40:38;;;;;;;;;3.50;3.25;;;;;17.34;41.71;101837.78;5081112;27;51115;-77
2022/09/22 11:43:27;;;;;;;;;3.75;3.75;;;;;17.63;41.94;101877.91;5070236;27;49761;-78
2022/09/22 11:46:01;;;;;;;;;3.25;3.25;;;;;17.74;41.65;101876.25;5069310;28;49861;-78
2022/09/22 11:48:54;;;;;;;;;2.25;1.50;;;;;16.88;40.37;101746.22;5082696;27;49833;-75
2022/09/22 11:51:28;;;;;;;;;4.50;3.25;;;;;17.81;39.97;101865.69;5086394;27;49994;-71
2022/09/22 11:54:16;;;;;;;;;1.75;1.75;;;;;17.86;39.52;101870.19;5092364;27;49681;-79
2022/09/22 11:56:46;;;;;;;;;1.00;1.00;;;;;17.91;38.60;101873.75;5088699;27;49728;-85
2022/09/22 11:59:44;;;;;;;;;3.00;3.00;;;;;16.86;39.91;101682.56;5092827;27;49911;-82
2022/09/22 12:02:16;;;;;;;;;2.00;2.00;;;;;17.93;39.03;101863.13;5087392;27;50039;-79
2022/09/22 12:05:03;;;;;;;;;2.00;2.00;;;;;17.11;39.31;101704.91;5085321;27;49792;-78
2022/09/22 12:07:35;;;;;;;;;3.50;2.00;;;;;17.38;39.57;101719.28;5091627;27;49903;-75
2022/09/22 12:10:05;;;;;;;;;1.00;1.00;;;;;17.44;37.98;101746.75;5093358;27;49758;-79
2022/09/22 12:12:32;;;;;;;;;2.75;1.00;;;;;17.33;38.59;101719.22;5083366;27;50413;-71
2022/09/22 12:15:06;;;;;;;;;1.00;0.00;;;;;18.13;38.16;101802.16;5090764;27;49852;-88
2022/09/22 12:17:45;;;;;;;;;2.00;2.00;;;;;17.31;37.33;101670.56;5091086;27;49591;-72
2022/09/22 12:20:22;;;;;;;;;3.25;2.00;;;;;18.44;37.97;101844.03;5091394;27;49735;-82
2022/09/22 12:23:12;;;;;;;;;2.75;2.75;;;;;18.37;37.93;101823.59;5089602;27;49816;-72
2022/09/22 12:25:53;;;;;;;;;3.00;2.25;;;;;18.54;37.33;101850.28;5087715;27;49830;-73
2022/09/22 12:28:24;;;;;;;;;1.00;1.00;;;;;18.12;36.93;101766.75;5085785;27;49913;-80
2022/09/22 12:31:12;;;;;;;;;2.00;2.00;;;;;18.66;37.59;101860.13;5089042;27;49772;-73
2022/09/22 12:33:53;;;;;;;;;2.00;2.00;;;;;18.72;36.79;101836.19;5090044;27;50756;-76
2022/09/22 12:36:37;;;;;;;;;1.00;1.00;;;;;17.56;37.55;101628.25;5091210;27;49635;-78
2022/09/22 12:39:16;;;;;;;;;1.00;1.00;;;;;18.90;37.24;101825.63;5091006;27;49874;-82
2022/09/22 12:41:55;;;;;;;;;2.00;1.00;;;;;18.24;36.92;101692.41;5091586;27;50029;-84
2022/09/22 12:44:24;;;;;;;;;1.00;1.00;;;;;19.12;37.19;101813.28;5085616;27;49784;-80
2022/09/22 12:46:55;;;;;;;;;4.00;4.00;;;;;19.12;36.71;101803.53;5089625;27;49843;-83
2022/09/22 12:49:22;;;;;;;;;2.00;2.00;;;;;19.27;36.37;101818.63;5089804;27;49989;-84
2022/09/22 12:51:49;;;;;;;;;3.25;3.00;;;;;19.33;36.31;101801.78;5091268;27;49714;-84
2022/09/22 12:54:20;;;;;;;;;2.00;2.00;;;;;19.22;35.67;101777.81;5090900;27;49743;-73
2022/09/22 12:56:56;;;;;;;;;3.25;2.00;;;;;19.22;35.25;101801.78;5091585;27;49846;-86
2022/09/22 12:59:34;;;;;;;;;1.00;1.00;;;;;19.43;35.94;101804.47;5091949;27;49571;-75
2022/09/22 13:02:17;;;;;;;;;1.00;1.00;;;;;19.48;36.27;101800.91;5091025;27;49768;-88
2022/09/22 13:04:54;;;;;;;;;1.00;1.00;;;;;19.44;35.71;101794.69;5091285;27;49588;-73
2022/09/22 13:07:39;;;;;;;;;3.75;3.75;;;;;19.43;36.01;101796.47;5085277;27;49766;-75
2022/09/22 13:10:19;;;;;;;;;3.25;3.25;;;;;19.51;36.40;101790.28;5090739;27;49793;-79
2022/09/22 13:13:00;;;;;;;;;3.50;3.50;;;;;19.56;36.44;101786.75;5090789;27;49630;-75
2022/09/22 13:15:28;;;;;;;;;0.50;0.50;;;;;19.66;37.28;101791.19;5090629;27;50684;-74
2022/09/22 13:17:53;;;;;;;;;1.75;1.75;;;;;19.77;36.88;101777.84;5091323;27;49799;-83
2022/09/22 13:20:24;;;;;;;;;2.00;2.00;;;;;19.85;35.88;101778.72;5070329;27;49712;-83
2022/09/22 13:22:55;;;;;;;;;1.00;1.00;;;;;19.88;36.76;101764.50;5089917;27;50331;-85
2022/09/22 13:25:24;;;;;;;;;4.00;2.75;;;;;19.19;35.16;101655.34;5093975;27;50044;-84
2022/09/22 13:28:05;;;;;;;;;2.00;2.00;;;;;20.09;36.31;101771.59;5089024;27;49750;-85
2022/09/22 13:30:31;;;;;;;;;3.00;3.00;;;;;18.92;35.34;101595.06;5095344;27;49726;-75
2022/09/22 13:32:57;;;;;;;;;2.00;2.00;;;;;19.70;35.45;101698.84;5094273;27;49727;-81
2022/09/22 13:35:32;;;;;;;;;3.00;3.00;;;;;20.02;35.42;101773.38;5093940;27;50914;-73
2022/09/22 13:37:58;;;;;;;;;3.00;2.50;;;;;19.82;35.63;101720.13;5094166;27;49839;-74
2022/09/22 13:40:27;;;;;;;;;2.75;2.75;;;;;20.11;35.20;101768.03;5094178;27;49713;-84
2022/09/22 13:42:58;;;;;;;;;2.50;2.25;;;;;19.61;35.32;101699.75;5094598;27;49965;-77
2022/09/22 13:45:26;;;;;;;;;1.00;1.00;;;;;19.04;35.86;101573.75;5094084;27;49851;-73
2022/09/22 13:48:01;;;;;;;;;2.00;2.00;;;;;19.12;35.56;101563.13;5092266;27;49805;-73
2022/09/22 13:50:26;;;;;;;;;2.50;2.00;;;;;20.41;34.96;101759.03;5093796;27;50115;-76
2022/09/22 13:52:52;;;;;;;;;2.00;2.00;;;;;19.75;34.92;101650.88;5093560;27;53884;-73
2022/09/22 13:55:30;;;;;;;;;3.50;3.00;;;;;19.49;34.55;101617.16;5093759;27;50542;-75
2022/09/22 13:57:58;;;;;;;;;2.25;2.25;;;;;19.50;33.67;101608.28;5094028;27;49789;-74
2022/09/22 14:00:27;;;;;;;;;1.00;1.00;;;;;20.16;33.89;101698.69;5093648;27;50082;-78
2022/09/22 14:02:59;;;;;;;;;2.00;2.00;;;;;19.98;34.00;101665.91;5093327;27;49726;-74
2022/09/22 14:05:31;;;;;;;;;3.25;2.00;;;;;20.42;33.87;101727.91;5093589;27;50714;-74
2022/09/22 14:07:59;;;;;;;;;2.75;2.00;;;;;19.51;34.32;101606.53;5093401;27;49946;-73
2022/09/22 14:10:26;;;;;;;;;2.00;2.00;;;;;19.72;33.80;101622.47;5093394;27;49717;-76
2022/09/22 14:12:53;;;;;;;;;1.50;1.50;;;;;20.02;34.18;101649.00;5093527;27;49926;-79
2022/09/22 14:15:33;;;;;;;;;2.50;2.50;;;;;20.62;33.73;101727.84;5093272;27;50429;-76
2022/09/22 14:18:00;;;;;;;;;4.00;3.00;;;;;20.65;34.32;101738.50;5093684;27;49891;-83
2022/09/22 14:20:26;;;;;;;;;2.00;2.00;;;;;20.66;33.79;101727.84;5087507;27;49779;-80
2022/09/22 14:22:53;;;;;;;;;2.00;2.00;;;;;19.59;34.10;101567.44;5093961;27;49717;-76
2022/09/22 14:25:19;;;;;;;;;1.00;1.00;;;;;20.69;34.26;101717.16;5093492;27;49963;-80
2022/09/22 14:27:56;;;;;;;;;4.50;2.75;;;;;19.64;33.79;101531.91;5093036;27;49789;-80
2022/09/22 14:30:27;;;;;;;;;3.00;2.00;;;;;20.33;33.56;101680.84;5092248;27;49660;-85
2022/09/22 14:32:56;;;;;;;;;2.00;2.00;;;;;19.92;33.36;101585.97;5093781;27;49841;-77
2022/09/22 14:35:31;;;;;;;;;2.00;2.00;;;;;20.70;34.06;101699.34;5092798;27;49779;-86
2022/09/22 14:38:01;;;;;;;;;3.75;3.25;;;;;20.80;33.99;101714.41;5094835;27;50085;-84
2022/09/22 14:40:27;;;;;;;;;1.75;1.75;;;;;20.57;33.26;101675.44;5094763;27;49943;-82
2022/09/22 14:43:01;;;;;;;;;2.50;1.25;;;;;20.30;33.45;101639.09;5092076;27;49944;-81
2022/09/22 14:45:28;;;;;;;;;2.50;2.50;;;;;20.61;34.10;101670.94;5093351;27;50569;-82
2022/09/22 14:48:11;;;;;;;;;2.00;2.00;;;;;20.84;32.56;101709.06;5093030;27;49792;-87
2022/09/22 14:50:45;;;;;;;;;1.00;1.00;;;;;20.86;33.50;101714.38;5092771;27;49865;-86
2022/09/22 14:53:38;;;;;;;;;2.00;2.00;;;;;20.89;33.16;101706.34;5094100;27;49921;-87
2022/09/22 14:56:14;;;;;;;;;2.25;2.00;;;;;20.39;33.56;101621.28;5093821;27;49779;-84
2022/09/22 14:58:42;;;;;;;;;3.50;3.00;;;;;20.70;33.48;101688.69;5093473;27;49700;-85
2022/09/22 15:04:22;;;;;;;;;4.00;3.00;;;;;19.88;33.27;101581.56;5088434;27;49659;-76
2022/09/22 15:06:50;;;;;;;;;2.50;2.00;;;;;20.10;33.26;101608.09;5092312;27;49666;-84
2022/09/22 15:09:36;;;;;;;;;3.50;3.00;;;;;20.78;33.57;101708.22;5093144;27;49913;-77
2022/09/22 15:12:03;;;;;;;;;2.00;2.00;;;;;20.81;34.15;101709.06;5093215;27;49780;-75
2022/09/22 15:14:40;;;;;;;;;2.25;2.00;;;;;20.90;34.24;101718.78;5093055;27;49843;-83
2022/09/22 15:20:27;;;;;;;;;1.50;1.50;;;;;20.69;34.03;101657.56;5092710;27;49762;-80
2022/09/22 15:22:54;;;;;;;;;3.25;2.50;;;;;20.89;33.10;101690.34;5087501;27;49857;-86
2022/09/22 15:25:20;;;;;;;;;3.00;3.00;;;;;20.41;33.03;101599.03;5092344;27;49769;-87
2022/09/22 15:27:46;;;;;;;;;2.75;2.75;;;;;20.94;34.16;101683.19;5093408;27;49844;-84
2022/09/22 15:30:15;;;;;;;;;2.75;1.75;;;;;20.35;33.62;101593.72;5092843;27;49777;-75
2022/09/22 15:32:42;;;;;;;;;4.25;2.50;;;;;20.35;34.01;101571.50;5093113;27;49810;-72
2022/09/22 15:35:08;;;;;;;;;2.75;2.75;;;;;20.30;33.98;101564.44;5093873;27;49936;-73
2022/09/22 15:37:37;;;;;;;;;2.00;2.00;;;;;20.94;33.97;101668.94;5092726;27;49893;-82
2022/09/22 15:40:17;;;;;;;;;3.00;3.00;;;;;20.88;34.39;101653.88;5092852;27;49799;-74
2022/09/22 15:42:44;;;;;;;;;4.00;2.50;;;;;21.03;33.18;101674.22;5089179;27;49659;-71
2022/09/22 15:45:14;;;;;;;;;2.75;2.75;;;;;21.01;33.24;101673.34;5093337;27;49947;-74
2022/09/22 15:47:40;;;;;;;;;1.50;1.50;;;;;21.02;33.26;101670.66;5092313;27;50837;-72
2022/09/22 15:50:16;;;;;;;;;3.00;2.25;;;;;21.02;33.48;101672.44;5093441;27;50534;-74
2022/09/22 15:52:43;;;;;;;;;2.50;2.50;;;;;21.00;33.03;101668.91;5099034;27;49802;-72
2022/09/22 15:55:16;;;;;;;;;2.00;2.00;;;;;21.03;34.04;101658.19;5100201;27;49935;-75
2022/09/22 15:57:45;;;;;;;;;1.75;1.75;;;;;21.05;33.59;101657.31;5102045;27;49965;-73
2022/09/22 16:00:15;;;;;;;;;2.25;2.25;;;;;20.91;33.18;101645.84;5092639;27;49831;-78
2022/09/22 16:02:41;;;;;;;;;2.50;1.75;;;;;20.94;33.62;101651.16;5091345;27;49886;-83
2022/09/22 16:05:08;;;;;;;;;3.50;3.50;;;;;20.88;33.61;101645.88;5091762;27;49763;-74
2022/09/22 16:07:37;;;;;;;;;2.25;2.25;;;;;20.92;33.29;101660.06;5091384;27;51215;-76
2022/09/22 16:10:03;;;;;;;;;0.25;0.25;;;;;20.72;34.18;101629.06;5091758;27;49795;-73
2022/09/22 16:12:28;;;;;;;;;1.75;1.00;;;;;20.79;34.50;101643.25;5092085;27;49853;-79
2022/09/22 16:14:54;;;;;;;;;3.00;3.00;;;;;20.69;33.44;101638.88;5090122;27;49802;-73
2022/09/22 16:17:22;;;;;;;;;4.25;3.00;;;;;20.63;33.90;101625.59;5091181;27;50223;-81
2022/09/22 16:19:51;;;;;;;;;2.50;2.50;;;;;20.49;33.94;101612.34;5091221;27;49941;-81
2022/09/22 16:22:17;;;;;;;;;3.50;2.25;;;;;20.46;34.89;101607.94;5089978;27;49742;-75
2022/09/22 16:24:43;;;;;;;;;2.25;1.50;;;;;20.13;34.41;101558.31;5091774;27;49975;-82
2022/09/22 16:27:09;;;;;;;;;2.25;1.75;;;;;19.44;33.98;101449.41;5091606;27;49726;-76
2022/09/22 16:29:36;;;;;;;;;2.00;2.00;;;;;20.63;33.88;101641.59;5091642;27;49959;-82
2022/09/22 16:32:02;;;;;;;;;3.50;1.50;;;;;20.61;34.79;101640.72;5091481;27;49830;-78
2022/09/22 16:34:28;;;;;;;;;2.00;2.00;;;;;20.00;35.36;101573.50;5091491;27;49790;-75
2022/09/22 16:36:54;;;;;;;;;2.50;1.00;;;;;20.06;34.51;101577.00;5089619;27;51746;-80
2022/09/22 16:39:20;;;;;;;;;1.75;1.75;;;;;20.55;35.21;101645.19;5091371;27;49612;-77
2022/09/22 16:41:45;;;;;;;;;1.75;1.00;;;;;20.01;34.18;101547.72;5087249;27;49737;-75
2022/09/22 16:44:11;;;;;;;;;3.25;3.00;;;;;19.86;35.24;101538.03;5091698;27;50142;-76
2022/09/22 16:46:37;;;;;;;;;2.00;2.00;;;;;19.39;34.29;101472.50;5089858;27;50379;-80
2022/09/22 16:49:06;;;;;;;;;2.00;2.00;;;;;20.43;34.18;101642.59;5091174;27;49753;-78
2022/09/22 16:51:47;;;;;;;;;3.75;2.75;;;;;18.98;34.35;101391.94;5091787;27;49907;-85
2022/09/22 16:54:13;;;;;;;;;3.75;3.00;;;;;20.33;35.09;101637.28;5075849;27;50087;-76
2022/09/22 16:56:42;;;;;;;;;5.00;2.00;;;;;20.12;36.74;101620.53;5090588;27;50387;-76
2022/09/22 16:59:07;;;;;;;;;2.25;2.25;;;;;19.63;35.93;101545.25;5090567;27;49818;-73
2022/09/22 17:01:36;;;;;;;;;2.75;2.75;;;;;20.10;36.52;101621.44;5087969;27;49909;-74
2022/09/22 17:04:03;;;;;;;;;3.00;3.00;;;;;19.53;35.72;101540.81;5090063;27;49981;-75
2022/09/22 17:06:29;;;;;;;;;2.00;2.00;;;;;19.95;36.32;101638.34;5090589;27;50023;-78
2022/09/22 17:09:07;;;;;;;;;2.50;2.00;;;;;19.92;36.67;101647.25;5090238;27;49750;-82